createdAt,value
2019-03-11T00:02:33.963Z,4.28
2019-03-11T00:05:16.563Z,4.60
2019-03-11T00:07:51.480Z,3.93
2019-03-11T00:10:26.672Z,4.77
2019-03-11T00:13:01.031Z,4.70
2019-03-11T00:15:43.175Z,4.80
2019-03-11T00:18:18.256Z,4.20
2019-03-11T00:20:53.058Z,4.47
2019-03-11T00:23:27.650Z,4.08
2019-03-11T00:26:10.453Z,4.42
2019-03-11T00:28:45.059Z,4.53
2019-03-11T00:31:19.439Z,4.60
2019-03-11T00:33:54.186Z,4.20
2019-03-11T00:36:29.294Z,4.42
2019-03-11T00:39:04.078Z,4.53
2019-03-11T00:41:39.830Z,4.75
2019-03-11T00:44:14.712Z,4.47
2019-03-11T00:46:56.456Z,4.25
2019-03-11T00:49:31.048Z,4.40
2019-03-11T00:52:06.088Z,3.95
2019-03-11T00:54:40.905Z,4.27
2019-03-11T00:57:16.107Z,4.20
2019-03-11T00:59:50.565Z,4.47
2019-03-11T01:02:25.899Z,3.97
2019-03-11T01:05:01.262Z,4.10
2019-03-11T01:07:35.901Z,4.13
2019-03-11T01:10:10.650Z,4.42
2019-03-11T01:12:52.441Z,4.45
2019-03-11T01:15:27.309Z,4.00
2019-03-11T01:18:02.119Z,4.53
2019-03-11T01:20:39.505Z,4.20
2019-03-11T01:23:14.070Z,4.22
2019-03-11T01:25:55.911Z,4.35
2019-03-11T01:28:30.676Z,4.85
2019-03-11T01:31:05.873Z,4.53
2019-03-11T01:33:41.001Z,4.17
2019-03-11T01:36:23.117Z,4.37
2019-03-11T01:38:57.662Z,4.37
2019-03-11T01:41:32.743Z,4.47
2019-03-11T01:44:07.246Z,4.40
2019-03-11T01:46:42.170Z,3.90
2019-03-11T01:49:16.989Z,3.60
2019-03-11T01:51:54.159Z,3.75
2019-03-11T01:54:29.017Z,4.08
2019-03-11T01:57:03.938Z,3.90
2019-03-11T01:59:45.823Z,4.72
2019-03-11T02:02:20.580Z,4.20
2019-03-11T02:04:57.108Z,4.00
2019-03-11T02:07:31.906Z,4.20
2019-03-11T02:10:13.914Z,4.53
2019-03-11T02:12:48.714Z,4.53
2019-03-11T02:15:32.059Z,4.47
2019-03-11T02:18:06.463Z,3.95
2019-03-11T02:20:47.824Z,4.70
2019-03-11T02:23:22.630Z,4.25
2019-03-11T02:25:57.800Z,4.45
2019-03-11T02:28:32.407Z,4.28
2019-03-11T02:31:07.060Z,4.40
2019-03-11T02:33:41.902Z,4.67
2019-03-11T02:36:16.699Z,4.70
2019-03-11T02:38:51.383Z,5.40
2019-03-11T02:41:26.562Z,4.78
2019-03-11T02:44:01.600Z,5.08
2019-03-11T02:46:39.043Z,4.75
2019-03-11T02:49:15.825Z,4.53
2019-03-11T02:52:05.805Z,4.87
2019-03-11T02:54:40.152Z,4.80
2019-03-11T02:57:14.967Z,5.03
2019-03-11T02:59:56.825Z,5.22
2019-03-11T03:02:45.073Z,4.75
2019-03-11T03:05:33.596Z,4.62
2019-03-11T03:08:08.575Z,4.83
2019-03-11T03:10:50.850Z,5.22
2019-03-11T03:13:25.394Z,5.20
2019-03-11T03:16:00.359Z,5.08
2019-03-11T03:18:34.787Z,5.90
2019-03-11T03:21:16.994Z,5.08
2019-03-11T03:23:52.349Z,5.28
2019-03-11T03:26:27.390Z,5.10
2019-03-11T03:29:01.489Z,5.35
2019-03-11T03:31:36.346Z,5.47
2019-03-11T03:34:11.994Z,4.78
2019-03-11T03:36:47.366Z,5.33
2019-03-11T03:39:22.105Z,5.17
2019-03-11T03:41:56.584Z,5.42
2019-03-11T03:44:37.853Z,5.45
2019-03-11T03:47:12.743Z,5.50
2019-03-11T03:49:48.288Z,5.15
2019-03-11T03:52:23.465Z,5.37
2019-03-11T03:54:58.105Z,5.75
2019-03-11T03:57:33.156Z,4.75
2019-03-11T04:00:07.978Z,5.47
2019-03-11T04:02:42.340Z,5.33
2019-03-11T04:05:19.243Z,6.05
2019-03-11T04:07:53.953Z,5.47
2019-03-11T04:10:32.765Z,5.47
2019-03-11T04:13:05.705Z,5.92
2019-03-11T04:15:40.645Z,5.83
2019-03-11T04:18:16.568Z,5.62
2019-03-11T04:20:51.630Z,5.45
2019-03-11T04:23:26.485Z,5.78
2019-03-11T04:26:02.097Z,5.87
2019-03-11T04:28:36.599Z,5.67
2019-03-11T04:31:10.874Z,5.08
2019-03-11T04:33:45.656Z,5.65
2019-03-11T04:36:20.562Z,5.17
2019-03-11T04:38:55.139Z,5.40
2019-03-11T04:41:30.266Z,5.70
2019-03-11T04:44:06.622Z,6.00
2019-03-11T04:46:40.579Z,6.17
2019-03-11T04:49:15.241Z,5.72
2019-03-11T15:53:46.730Z,8.60
2019-03-11T15:56:22.087Z,8.80
2019-03-11T15:58:56.705Z,7.97
2019-03-11T16:01:31.932Z,8.13
2019-03-11T16:04:07.754Z,8.03
2019-03-11T16:06:42.562Z,8.20
2019-03-11T16:09:19.674Z,8.10
2019-03-11T16:11:53.389Z,8.43
2019-03-11T16:14:28.188Z,8.58
2019-03-11T16:17:02.983Z,8.30
2019-03-11T16:19:45.056Z,8.38
2019-03-11T16:22:23.338Z,8.03
2019-03-11T16:24:56.087Z,8.65
2019-03-11T16:27:30.796Z,8.05
2019-03-11T16:30:11.794Z,8.60
2019-03-11T16:32:58.440Z,8.30
2019-03-11T16:35:22.991Z,7.87
2019-03-11T16:37:57.180Z,9.03
2019-03-11T16:40:39.127Z,8.67
2019-03-11T16:43:13.815Z,8.30
2019-03-11T16:45:49.507Z,7.78
2019-03-11T16:48:25.137Z,7.72
2019-03-11T16:50:59.909Z,8.83
2019-03-11T16:53:34.846Z,8.38
2019-03-11T16:56:10.424Z,8.18
2019-03-11T16:58:45.994Z,7.90
2019-03-11T17:01:28.013Z,7.90
2019-03-11T17:04:03.254Z,7.72
2019-03-11T17:06:39.114Z,8.00
2019-03-11T17:09:14.930Z,7.70
2019-03-11T17:11:56.516Z,7.30
2019-03-11T17:14:32.380Z,7.50
2019-03-11T17:17:07.300Z,7.13
2019-03-11T17:19:42.170Z,7.25
2019-03-11T17:22:16.742Z,7.78
2019-03-11T17:24:52.213Z,6.80
2019-03-11T17:27:27.415Z,7.65
2019-03-11T17:30:04.014Z,7.12
2019-03-11T17:32:38.846Z,7.37
2019-03-11T17:35:14.254Z,6.87
2019-03-11T17:37:49.055Z,7.05
2019-03-11T17:40:23.888Z,6.62
2019-03-11T17:42:58.599Z,6.53
2019-03-11T17:45:34.893Z,6.83
2019-03-11T17:48:09.586Z,7.00
2019-03-11T17:50:43.959Z,7.15
2019-03-11T17:53:20.167Z,7.17
2019-03-11T17:55:54.562Z,7.28
2019-03-11T17:58:30.075Z,7.40
2019-03-11T18:01:04.807Z,7.80
2019-03-11T18:03:39.763Z,7.30
2019-03-11T18:06:14.521Z,7.22
2019-03-11T18:08:49.247Z,7.35
2019-03-11T18:11:24.024Z,8.33
2019-03-11T18:13:58.909Z,7.65
2019-03-11T18:16:34.163Z,6.97
2019-03-11T18:19:08.506Z,6.22
2019-03-11T18:21:43.573Z,7.37
2019-03-11T18:24:19.627Z,6.70
2019-03-11T18:26:55.842Z,7.42
2019-03-11T18:29:30.488Z,7.40
2019-03-11T18:32:05.095Z,7.03
2019-03-11T18:34:41.209Z,7.28
2019-03-11T18:37:16.893Z,6.30
2019-03-11T18:39:51.991Z,6.03
2019-03-11T18:42:28.400Z,6.67
2019-03-11T18:45:02.954Z,7.05
2019-03-11T18:47:37.421Z,6.67
2019-03-11T18:50:13.390Z,6.93
2019-03-11T18:52:48.342Z,6.90
2019-03-11T18:55:23.368Z,6.65
2019-03-11T18:57:58.406Z,6.50
2019-03-11T19:00:33.167Z,6.40
2019-03-11T19:03:20.276Z,6.58
2019-03-11T19:05:55.106Z,6.53
2019-03-11T19:08:30.234Z,6.83
2019-03-11T19:11:05.206Z,6.20
2019-03-11T19:13:39.812Z,6.35
2019-03-11T19:16:14.956Z,6.58
2019-03-11T19:18:50.415Z,5.95
2019-03-11T19:21:25.412Z,6.70
2019-03-11T19:24:00.076Z,5.95
2019-03-11T19:26:34.823Z,6.17
2019-03-11T19:29:10.001Z,6.55
2019-03-11T19:31:44.599Z,6.47
2019-03-11T19:34:19.363Z,6.22
2019-03-11T19:36:54.822Z,6.20
2019-03-11T19:39:29.657Z,5.92
2019-03-11T19:42:04.983Z,6.12
2019-03-11T19:44:47.478Z,6.28
2019-03-11T19:47:22.399Z,5.92
2019-03-11T19:49:57.391Z,6.20
2019-03-11T19:52:32.024Z,5.67
2019-03-11T19:55:06.524Z,6.78
2019-03-11T19:57:41.436Z,6.45
2019-03-11T20:00:18.511Z,6.50
2019-03-11T20:02:54.644Z,6.35
2019-03-11T20:05:29.882Z,6.17
2019-03-11T20:08:04.751Z,6.70
2019-03-11T20:10:39.309Z,6.10
2019-03-11T20:13:14.171Z,6.22
2019-03-11T20:15:49.563Z,6.50
2019-03-11T20:18:26.990Z,6.60
2019-03-11T20:21:00.167Z,6.35
2019-03-11T20:23:37.883Z,5.85
2019-03-11T20:26:20.090Z,6.53
2019-03-11T20:28:54.487Z,6.00
2019-03-11T20:31:29.763Z,6.22
2019-03-11T20:34:04.424Z,5.95
2019-03-11T20:36:39.073Z,6.40
2019-03-11T20:39:21.441Z,5.70
2019-03-11T20:41:56.011Z,6.17
2019-03-11T20:44:32.747Z,6.35
2019-03-11T20:47:07.395Z,6.25
2019-03-11T20:49:42.124Z,6.17
2019-03-11T20:52:16.661Z,6.60
2019-03-11T20:54:51.382Z,6.30
2019-03-11T20:57:34.187Z,5.80
2019-03-11T21:00:09.494Z,5.92
2019-03-11T21:02:43.965Z,5.80
2019-03-11T21:05:19.831Z,6.55
2019-03-11T21:07:54.096Z,6.47
2019-03-11T21:10:28.918Z,7.05
2019-03-11T21:13:03.721Z,6.30
2019-03-11T21:15:45.929Z,5.90
2019-03-11T21:18:20.680Z,6.87
2019-03-11T21:21:05.109Z,6.00
2019-03-11T21:23:36.619Z,6.57
2019-03-11T21:26:12.156Z,6.33
2019-03-11T21:28:46.708Z,6.47
2019-03-11T21:31:21.680Z,6.63
2019-03-11T21:33:58.978Z,6.10
2019-03-11T21:36:39.660Z,5.85
2019-03-11T21:39:14.376Z,5.95
2019-03-11T21:41:49.225Z,6.40
2019-03-11T21:44:23.591Z,5.97
2019-03-11T21:46:59.160Z,6.10
2019-03-11T21:49:33.881Z,6.03
2019-03-11T21:52:08.680Z,5.72
2019-03-11T21:54:43.100Z,6.03
2019-03-11T21:57:17.898Z,6.17
2019-03-11T21:59:53.180Z,6.50
2019-03-11T22:02:28.042Z,5.37
2019-03-11T22:05:09.427Z,6.10
2019-03-11T22:07:44.065Z,4.85
2019-03-11T22:10:18.574Z,5.50
2019-03-11T22:12:53.380Z,5.70
2019-03-11T22:15:35.496Z,5.72
2019-03-11T22:18:10.011Z,5.25
2019-03-11T22:20:45.019Z,5.40
2019-03-11T22:23:19.615Z,5.43
2019-03-11T22:26:01.149Z,5.60
2019-03-11T22:28:36.072Z,5.87
2019-03-11T22:31:10.984Z,5.17
2019-03-11T22:33:46.676Z,5.30
2019-03-11T22:36:28.736Z,5.20
2019-03-11T22:39:04.799Z,5.60
2019-03-11T22:41:39.841Z,5.33
2019-03-11T22:44:14.561Z,5.47
2019-03-11T22:46:49.682Z,5.35
2019-03-11T22:49:24.221Z,5.15
2019-03-11T22:52:06.487Z,5.03
2019-03-11T22:54:43.574Z,4.72
2019-03-11T22:57:29.538Z,5.05
2019-03-11T23:00:02.770Z,5.27
2019-03-11T23:02:40.263Z,5.50
2019-03-11T23:05:22.578Z,4.75
2019-03-11T23:07:56.980Z,5.37
2019-03-11T23:10:31.943Z,5.03
2019-03-11T23:13:06.339Z,4.80
2019-03-11T23:15:41.398Z,4.95
2019-03-11T23:18:16.121Z,5.05
2019-03-11T23:20:57.797Z,4.95
2019-03-11T23:23:32.114Z,4.83
2019-03-11T23:26:12.912Z,4.97
2019-03-11T23:28:47.406Z,4.37
2019-03-11T23:31:28.984Z,4.58
2019-03-11T23:34:03.845Z,5.47
2019-03-11T23:36:40.521Z,5.15
2019-03-11T23:39:15.834Z,4.87
2019-03-11T23:41:50.995Z,4.53
2019-03-11T23:44:26.665Z,4.50
2019-03-11T23:47:08.205Z,4.67
2019-03-11T23:49:42.910Z,5.00
2019-03-11T23:52:17.832Z,5.03
2019-03-11T23:54:53.392Z,4.97
2019-03-11T23:57:42.080Z,4.70
